createdAt,value
2022-12-08T00:00:24.099Z,2.13
2022-12-08T00:02:22.377Z,2.10
2022-12-08T00:04:20.367Z,2.02
2022-12-08T00:06:40.938Z,1.96
2022-12-08T00:08:57.935Z,1.92
2022-12-08T00:10:55.901Z,1.85
2022-12-08T00:12:53.723Z,1.77
2022-12-08T00:14:51.836Z,1.76
2022-12-08T00:16:49.836Z,1.77
2022-12-08T00:18:47.800Z,1.87
2022-12-08T00:20:45.740Z,1.90
2022-12-08T00:22:43.795Z,1.91
2022-12-08T00:24:44.943Z,1.88
2022-12-08T00:26:42.872Z,1.82
2022-12-08T00:28:41.038Z,1.85
2022-12-08T00:30:40.668Z,1.99
2022-12-08T00:32:38.935Z,1.93
2022-12-08T00:34:37.093Z,1.87
2022-12-08T00:36:35.302Z,1.83
2022-12-08T00:38:33.402Z,1.79
2022-12-08T00:40:32.758Z,1.71
2022-12-08T00:42:30.869Z,1.70
2022-12-08T00:44:28.863Z,1.67
2022-12-08T00:46:26.802Z,1.69
2022-12-08T00:48:24.867Z,1.67
2022-12-08T00:50:22.836Z,1.76
2022-12-08T00:52:21.125Z,1.78
2022-12-08T00:54:19.505Z,1.76
2022-12-08T00:56:19.084Z,1.75
2022-12-08T00:58:17.110Z,1.78
2022-12-08T01:00:15.358Z,1.80
2022-12-08T01:02:13.242Z,1.82
2022-12-08T01:04:12.248Z,1.84
2022-12-08T01:06:11.008Z,1.99
2022-12-08T01:08:09.976Z,2.14
2022-12-08T01:10:08.887Z,2.13
2022-12-08T01:12:08.736Z,2.09
2022-12-08T01:14:06.805Z,2.07
2022-12-08T01:16:05.327Z,2.04
2022-12-08T01:18:03.559Z,1.96
2022-12-08T01:20:02.336Z,1.91
2022-12-08T01:22:00.573Z,1.95
2022-12-08T01:24:00.982Z,1.95
2022-12-08T01:26:02.477Z,1.98
2022-12-08T01:28:01.933Z,1.96
2022-12-08T01:29:59.745Z,1.92
2022-12-08T01:31:57.679Z,1.90
2022-12-08T01:33:55.760Z,1.85
2022-12-08T01:35:53.829Z,1.88
2022-12-08T01:37:51.949Z,1.88
2022-12-08T01:39:49.880Z,1.84
2022-12-08T01:41:48.635Z,1.86
2022-12-08T01:43:58.414Z,1.96
2022-12-08T01:45:56.422Z,1.97
2022-12-08T01:47:57.698Z,2.01
2022-12-08T01:49:55.874Z,2.01
2022-12-08T01:54:41.735Z,2.13
2022-12-08T01:56:43.414Z,2.07
2022-12-08T01:58:46.560Z,2.09
2022-12-08T02:00:46.044Z,2.06
2022-12-08T02:02:49.069Z,2.02
2022-12-08T02:04:47.146Z,1.90
2022-12-08T02:06:46.115Z,1.87
2022-12-08T02:08:50.027Z,1.90
2022-12-08T02:10:56.287Z,1.80
2022-12-08T02:12:59.080Z,1.72
2022-12-08T02:15:01.851Z,1.65
2022-12-08T02:17:16.226Z,1.68
2022-12-08T02:19:33.224Z,1.60
2022-12-08T02:21:38.207Z,1.62
2022-12-08T02:23:45.048Z,1.57
2022-12-08T02:25:57.110Z,1.51
2022-12-08T02:28:01.703Z,1.52
2022-12-08T02:30:18.902Z,1.45
2022-12-08T02:32:24.810Z,1.50
2022-12-08T02:34:30.682Z,1.54
2022-12-08T02:36:37.201Z,1.59
2022-12-08T02:38:43.426Z,1.70
2022-12-08T02:40:46.366Z,1.73
2022-12-08T02:42:46.326Z,1.61
2022-12-08T02:44:49.952Z,1.54
2022-12-08T02:46:49.570Z,1.50
2022-12-08T02:48:48.055Z,1.40
2022-12-08T02:50:47.327Z,1.36
2022-12-08T02:52:46.159Z,1.35
2022-12-08T02:54:46.517Z,1.31
2022-12-08T02:57:09.416Z,1.34
2022-12-08T02:59:26.059Z,1.32
2022-12-08T03:01:35.536Z,1.27
2022-12-08T03:03:36.852Z,1.24
2022-12-08T03:05:43.382Z,1.18
2022-12-08T03:07:47.007Z,1.10
2022-12-08T03:09:47.568Z,1.16
2022-12-08T03:11:48.922Z,1.17
2022-12-08T03:13:48.476Z,1.14
2022-12-08T03:15:48.604Z,1.08
2022-12-08T03:17:48.617Z,1.04
2022-12-08T03:19:47.440Z,1.09
2022-12-08T03:21:46.554Z,1.15
2022-12-08T03:23:47.675Z,1.10
2022-12-08T03:25:49.691Z,1.11
2022-12-08T03:27:47.837Z,1.20
2022-12-08T03:29:46.699Z,1.19
2022-12-08T03:31:47.033Z,1.31
2022-12-08T03:33:46.766Z,1.28
2022-12-08T03:35:45.027Z,1.28
2022-12-08T03:37:43.568Z,1.27
2022-12-08T03:39:42.944Z,1.22
2022-12-08T03:41:40.879Z,1.20
2022-12-08T03:43:38.955Z,1.19
2022-12-08T03:45:36.980Z,1.19
2022-12-08T03:47:34.821Z,1.24
2022-12-08T03:49:32.859Z,1.25
2022-12-08T03:51:30.829Z,1.32
2022-12-08T03:53:28.755Z,1.29
2022-12-08T03:55:28.061Z,1.25
2022-12-08T03:57:26.011Z,1.22
2022-12-08T03:59:24.153Z,1.22
2022-12-08T04:01:22.700Z,1.22
2022-12-08T04:03:20.837Z,1.23
2022-12-08T04:05:19.034Z,1.18
2022-12-08T04:07:17.293Z,1.19
2022-12-08T04:09:15.333Z,1.17
2022-12-08T04:11:14.604Z,1.20
2022-12-08T04:13:12.620Z,1.20
2022-12-08T04:15:11.512Z,1.16
2022-12-08T04:17:09.546Z,1.14
2022-12-08T04:19:07.497Z,1.13
2022-12-08T04:21:05.625Z,1.18
2022-12-08T04:23:03.749Z,1.20
2022-12-08T04:25:01.822Z,1.23
2022-12-08T04:27:01.166Z,1.22
2022-12-08T04:28:59.220Z,1.19
2022-12-08T04:30:57.365Z,1.26
2022-12-08T04:32:55.382Z,1.24
2022-12-08T04:34:53.406Z,1.26
2022-12-08T04:36:51.366Z,1.38
2022-12-08T04:38:49.184Z,1.40
2022-12-08T04:40:47.716Z,1.46
2022-12-08T04:42:47.269Z,1.47
2022-12-08T04:44:45.331Z,1.53
2022-12-08T04:46:43.874Z,1.56
2022-12-08T04:48:42.005Z,1.61
2022-12-08T04:50:41.395Z,1.61
2022-12-08T04:52:39.470Z,1.55
2022-12-08T04:54:37.441Z,1.56
2022-12-08T04:56:35.486Z,1.62
2022-12-08T04:58:34.921Z,1.54
2022-12-08T05:00:32.988Z,1.53
2022-12-08T05:02:30.911Z,1.56
2022-12-08T05:04:29.015Z,1.56
2022-12-08T05:06:27.022Z,1.52
2022-12-08T05:08:25.231Z,1.57
2022-12-08T05:10:23.542Z,1.57
2022-12-08T05:12:21.484Z,1.54
2022-12-08T05:14:20.864Z,1.53
2022-12-08T05:16:18.999Z,1.57
2022-12-08T05:18:17.019Z,1.54
2022-12-08T05:20:15.095Z,1.51
2022-12-08T05:22:13.213Z,1.52
2022-12-08T05:24:11.379Z,1.52
2022-12-08T05:26:09.490Z,1.49
2022-12-08T05:28:39.515Z,1.47
2022-12-08T05:30:26.784Z,1.42
2022-12-08T05:32:24.792Z,1.34
2022-12-08T05:34:22.661Z,1.33
2022-12-08T05:36:21.003Z,1.30
2022-12-08T05:38:19.043Z,1.25
2022-12-08T05:40:17.254Z,1.18
2022-12-08T05:42:16.728Z,1.25
2022-12-08T05:44:16.507Z,1.29
2022-12-08T05:46:16.324Z,1.34
2022-12-08T05:48:14.455Z,1.35
2022-12-08T05:50:12.588Z,1.25
2022-12-08T05:52:10.569Z,1.15
2022-12-08T05:54:08.495Z,1.20
2022-12-08T05:56:06.817Z,1.14
2022-12-08T05:58:08.036Z,1.13
2022-12-08T06:00:07.859Z,1.13
2022-12-08T06:02:11.234Z,1.13
2022-12-08T06:04:10.221Z,1.08
2022-12-08T06:06:08.399Z,1.07
2022-12-08T06:08:06.549Z,1.10
2022-12-08T06:10:05.147Z,1.16
2022-12-08T06:12:03.901Z,1.16
2022-12-08T06:14:04.403Z,1.19
2022-12-08T06:16:04.896Z,1.23
2022-12-08T06:18:04.171Z,1.27
2022-12-08T06:20:02.810Z,1.37
2022-12-08T06:22:01.172Z,1.54
2022-12-08T06:23:59.314Z,1.65
2022-12-08T06:26:01.275Z,1.71
2022-12-08T06:27:59.371Z,1.84
2022-12-08T06:29:57.730Z,1.90
2022-12-08T06:31:55.996Z,2.04
2022-12-08T06:33:56.232Z,2.23
2022-12-08T06:35:54.199Z,2.35
2022-12-08T06:37:52.213Z,2.42
2022-12-08T06:39:50.292Z,2.55
2022-12-08T06:42:05.742Z,2.78
2022-12-08T06:44:03.698Z,3.06
2022-12-08T06:46:02.211Z,3.12
2022-12-08T06:48:00.061Z,3.31
2022-12-08T06:49:59.482Z,3.48
2022-12-08T06:51:57.691Z,3.61
2022-12-08T06:53:55.699Z,3.70
2022-12-08T06:56:01.543Z,3.71
2022-12-08T06:57:59.658Z,3.60
2022-12-08T06:59:57.582Z,3.52
2022-12-08T07:01:55.638Z,3.49
2022-12-08T07:03:53.855Z,3.48
2022-12-08T07:06:01.795Z,3.30
2022-12-08T07:08:01.794Z,3.23
2022-12-08T07:09:59.939Z,3.23
2022-12-08T07:11:58.124Z,3.26
2022-12-08T07:13:56.815Z,3.30
2022-12-08T07:15:54.811Z,3.29
2022-12-08T07:17:59.358Z,3.24
2022-12-08T07:19:58.025Z,3.53
2022-12-08T07:21:57.595Z,3.55
2022-12-08T07:23:57.795Z,3.62
2022-12-08T07:25:56.141Z,3.80
2022-12-08T07:27:54.114Z,3.82
2022-12-08T07:29:52.225Z,3.93
2022-12-08T07:31:50.684Z,3.84
2022-12-08T07:33:50.222Z,3.85
2022-12-08T07:35:54.772Z,3.86
2022-12-08T07:37:54.400Z,3.88
2022-12-08T07:39:52.447Z,4.07
2022-12-08T07:41:50.833Z,4.18
2022-12-08T07:43:48.831Z,4.19
2022-12-08T07:45:46.810Z,4.31
2022-12-08T07:47:44.933Z,4.45
2022-12-08T07:49:43.117Z,4.52
2022-12-08T07:51:41.050Z,4.65
2022-12-08T07:53:42.830Z,4.78
2022-12-08T07:55:41.765Z,4.94
2022-12-08T07:57:39.812Z,4.95
2022-12-08T07:59:37.971Z,5.08
2022-12-08T08:01:36.238Z,5.15
2022-12-08T08:03:34.541Z,5.39
2022-12-08T08:05:32.523Z,5.42
2022-12-08T08:07:31.924Z,5.47
2022-12-08T08:09:31.409Z,5.70
2022-12-08T08:11:29.341Z,5.91
2022-12-08T08:13:27.371Z,6.18
2022-12-08T08:15:25.595Z,6.56
2022-12-08T08:17:23.892Z,6.92
2022-12-08T08:19:21.980Z,7.31
2022-12-08T08:23:38.378Z,8.07
2022-12-08T08:25:37.723Z,7.92
2022-12-08T08:27:35.928Z,7.92
2022-12-08T08:29:33.740Z,7.87
2022-12-08T08:31:31.682Z,7.73
2022-12-08T08:33:29.921Z,8.08
2022-12-08T08:35:27.814Z,8.49
2022-12-08T08:37:25.804Z,8.87
2022-12-08T08:39:23.818Z,9.07
2022-12-08T08:41:23.119Z,9.49
2022-12-08T08:43:38.047Z,10.48
2022-12-08T08:45:36.760Z,11.71
2022-12-08T08:47:34.692Z,12.55
2022-12-08T08:49:32.728Z,13.58
2022-12-08T08:51:30.684Z,14.24
2022-12-08T08:53:28.731Z,14.71
2022-12-08T08:55:26.760Z,15.16
2022-12-08T08:57:26.391Z,15.16
2022-12-08T08:59:24.483Z,15.45
2022-12-08T09:01:24.062Z,15.08
2022-12-08T09:03:22.186Z,14.64
2022-12-08T09:05:20.221Z,13.99
2022-12-08T09:07:18.086Z,13.43
2022-12-08T09:09:16.460Z,13.16
2022-12-08T09:11:14.686Z,12.42
2022-12-08T09:13:14.044Z,11.64
2022-12-08T09:15:12.101Z,10.85
2022-12-08T09:17:10.281Z,10.76
2022-12-08T09:19:08.336Z,11.34
2022-12-08T09:21:06.939Z,11.63
2022-12-08T09:23:04.898Z,12.17
2022-12-08T09:25:03.026Z,11.96
2022-12-08T09:27:00.934Z,11.83
2022-12-08T09:29:00.522Z,11.51
2022-12-08T09:30:58.588Z,11.47
2022-12-08T09:32:56.582Z,11.70
2022-12-08T09:34:54.816Z,12.37
2022-12-08T09:36:52.912Z,12.82
2022-12-08T09:38:53.628Z,13.28
2022-12-08T09:40:52.953Z,12.98
2022-12-08T09:42:52.612Z,12.63
2022-12-08T09:44:57.416Z,12.24
2022-12-08T09:46:57.709Z,12.12
2022-12-08T09:48:56.860Z,12.90
2022-12-08T09:50:56.730Z,13.53
2022-12-08T09:53:00.060Z,13.68
2022-12-08T09:55:00.228Z,13.41
2022-12-08T09:57:00.502Z,13.13
2022-12-08T09:58:59.891Z,12.65
2022-12-08T10:00:59.303Z,12.59
2022-12-08T10:02:57.556Z,13.09
2022-12-08T10:04:56.184Z,12.96
2022-12-08T10:07:00.521Z,12.80
2022-12-08T10:09:02.654Z,13.46
2022-12-08T10:11:06.141Z,14.16
2022-12-08T10:13:08.463Z,14.73
2022-12-08T10:15:14.687Z,15.75
2022-12-08T10:17:17.883Z,16.02
2022-12-08T10:19:19.141Z,15.24
2022-12-08T10:21:19.919Z,14.96
2022-12-08T10:23:22.384Z,14.83
2022-12-08T10:25:22.175Z,14.50
2022-12-08T10:27:21.225Z,14.09
2022-12-08T10:29:19.189Z,14.03
2022-12-08T10:31:18.740Z,14.07
2022-12-08T10:33:19.368Z,14.39
2022-12-08T10:35:18.249Z,14.21
2022-12-08T10:37:16.650Z,14.67
2022-12-08T10:39:30.115Z,14.90
2022-12-08T10:41:28.283Z,15.11
2022-12-08T10:43:28.188Z,15.92
2022-12-08T10:45:27.277Z,16.31
2022-12-08T10:47:26.856Z,16.49
2022-12-08T10:49:28.955Z,16.72
2022-12-08T10:51:29.744Z,17.61
2022-12-08T10:53:29.421Z,17.65
2022-12-08T10:55:27.849Z,18.38
2022-12-08T10:57:25.972Z,18.47
2022-12-08T10:59:25.625Z,18.13
2022-12-08T11:01:25.514Z,17.71
2022-12-08T11:03:26.330Z,17.59
2022-12-08T11:05:33.346Z,17.23
2022-12-08T11:07:31.664Z,17.05
2022-12-08T11:09:37.741Z,17.00
2022-12-08T11:11:40.126Z,16.85
2022-12-08T11:13:41.627Z,16.26
2022-12-08T11:15:41.668Z,15.25
2022-12-08T11:17:40.663Z,14.09
2022-12-08T11:19:39.735Z,13.15
2022-12-08T11:21:39.147Z,12.21
2022-12-08T11:23:38.177Z,11.57
2022-12-08T11:25:36.556Z,11.12
2022-12-08T11:27:36.756Z,11.08
2022-12-08T11:29:36.458Z,10.88
2022-12-08T11:31:36.227Z,10.54
2022-12-08T11:33:35.676Z,10.34
2022-12-08T11:35:36.138Z,10.07
2022-12-08T11:37:39.578Z,9.76
2022-12-08T11:39:43.107Z,9.82
2022-12-08T11:45:04.778Z,10.03
2022-12-08T11:47:06.470Z,10.18
2022-12-08T11:49:07.051Z,10.32
2022-12-08T11:51:07.446Z,10.43
2022-12-08T11:53:10.128Z,10.74
2022-12-08T11:55:18.878Z,10.96
2022-12-08T11:57:20.793Z,10.57
2022-12-08T11:59:22.864Z,10.63
2022-12-08T12:01:22.353Z,10.65
2022-12-08T12:03:24.226Z,10.70
2022-12-08T12:05:47.584Z,10.70
2022-12-08T12:08:06.945Z,10.72
2022-12-08T12:10:13.643Z,10.69
2022-12-08T12:12:20.976Z,10.59
2022-12-08T12:14:33.224Z,10.53
2022-12-08T12:16:38.739Z,10.61
2022-12-08T12:18:38.859Z,10.48
2022-12-08T12:20:39.163Z,10.57
2022-12-08T12:22:38.868Z,10.70
2022-12-08T12:24:38.751Z,10.69
2022-12-08T12:26:39.267Z,10.72
2022-12-08T12:28:42.649Z,10.69
2022-12-08T12:30:53.228Z,10.70
2022-12-08T12:32:54.489Z,10.67
2022-12-08T12:34:54.687Z,10.78
2022-12-08T12:36:54.911Z,10.97
2022-12-08T12:39:04.529Z,10.95
2022-12-08T12:41:08.329Z,10.74
2022-12-08T12:43:29.535Z,10.78
2022-12-08T12:45:29.697Z,10.75
2022-12-08T12:47:42.598Z,10.67
2022-12-08T12:49:53.207Z,10.70
2022-12-08T12:51:55.439Z,10.72
2022-12-08T12:53:53.364Z,10.66
2022-12-08T12:55:55.525Z,10.72
2022-12-08T12:57:55.030Z,10.78
2022-12-08T13:00:08.586Z,10.78
2022-12-08T13:02:17.658Z,10.68
2022-12-08T13:04:16.505Z,10.68
2022-12-08T13:06:15.964Z,10.59
2022-12-08T13:08:20.651Z,10.56
2022-12-08T13:10:21.020Z,10.43
2022-12-08T13:12:23.712Z,10.36
2022-12-08T13:14:28.298Z,10.32
2022-12-08T13:16:27.918Z,10.27
2022-12-08T13:18:28.720Z,10.35
2022-12-08T13:20:27.043Z,10.35
2022-12-08T13:22:43.571Z,10.38
2022-12-08T13:24:42.246Z,10.37
2022-12-08T13:26:45.432Z,10.43
2022-12-08T13:29:03.636Z,10.40
2022-12-08T13:31:01.802Z,10.31
2022-12-08T13:33:18.727Z,10.27
2022-12-08T13:35:18.933Z,10.18
2022-12-08T13:37:23.455Z,10.08
2022-12-08T13:39:22.996Z,10.06
2022-12-08T13:41:23.571Z,10.03
2022-12-08T13:43:26.210Z,9.96
2022-12-08T13:45:59.469Z,9.91
2022-12-08T13:48:20.544Z,9.86
2022-12-08T13:57:27.356Z,9.57
2022-12-08T13:59:28.669Z,9.53
2022-12-08T14:01:27.175Z,9.55
2022-12-08T14:03:27.405Z,9.50
2022-12-08T14:05:47.657Z,9.46
2022-12-08T14:07:46.181Z,9.37
2022-12-08T14:09:44.467Z,9.32
2022-12-08T14:11:44.344Z,9.29
2022-12-08T14:13:42.523Z,9.21
2022-12-08T14:15:41.541Z,9.21
2022-12-08T14:17:40.737Z,9.18
2022-12-08T14:19:39.288Z,9.11
2022-12-08T14:21:38.885Z,9.08
2022-12-08T14:23:38.137Z,9.01
2022-12-08T14:25:37.489Z,8.89
2022-12-08T14:27:36.482Z,8.84
2022-12-08T14:29:41.202Z,8.76
2022-12-08T14:31:39.315Z,8.66
2022-12-08T14:33:37.332Z,8.59
2022-12-08T14:35:36.855Z,8.51
2022-12-08T14:37:36.601Z,8.42
2022-12-08T14:39:37.257Z,8.43
2022-12-08T14:41:35.478Z,8.42
2022-12-08T14:43:33.646Z,8.51
2022-12-08T14:45:34.955Z,8.44
2022-12-08T14:47:34.496Z,8.33
2022-12-08T14:49:35.783Z,8.25
2022-12-08T14:51:34.533Z,8.24
2022-12-08T14:53:38.370Z,8.10
2022-12-08T14:55:38.607Z,7.98
2022-12-08T14:57:37.008Z,7.87
2022-12-08T14:59:36.787Z,7.80
2022-12-08T15:01:35.353Z,7.73
2022-12-08T15:03:33.684Z,7.79
2022-12-08T15:05:32.423Z,7.91
2022-12-08T15:07:32.039Z,7.88
2022-12-08T15:09:31.754Z,7.85
2022-12-08T15:11:36.212Z,7.82
2022-12-08T15:13:34.078Z,7.76
2022-12-08T15:15:32.981Z,7.65
2022-12-08T15:17:34.371Z,7.59
2022-12-08T15:19:33.244Z,7.47
2022-12-08T15:21:32.602Z,7.38
2022-12-08T15:23:32.633Z,7.34
2022-12-08T15:25:30.560Z,7.44
2022-12-08T15:27:29.993Z,7.46
2022-12-08T15:29:28.929Z,7.36
2022-12-08T15:31:27.048Z,7.34
2022-12-08T15:33:25.151Z,7.60
2022-12-08T15:35:23.135Z,7.72
2022-12-08T15:37:22.868Z,7.56
2022-12-08T15:39:25.872Z,7.48
2022-12-08T15:41:23.852Z,7.40
2022-12-08T15:43:23.696Z,7.35
2022-12-08T15:45:24.549Z,7.32
2022-12-08T15:47:23.907Z,7.34
2022-12-08T15:49:23.026Z,7.36
2022-12-08T15:51:20.985Z,7.38
2022-12-08T15:53:19.053Z,7.44
2022-12-08T15:55:19.779Z,7.51
2022-12-08T15:57:40.308Z,7.53
2022-12-08T15:59:40.290Z,7.59
2022-12-08T16:01:38.437Z,7.63
2022-12-08T16:04:27.486Z,7.63
2022-12-08T16:06:39.047Z,7.60
2022-12-08T16:08:38.275Z,7.50
2022-12-08T16:11:08.474Z,7.44
2022-12-08T16:17:48.421Z,7.31
2022-12-08T16:19:47.047Z,7.47
2022-12-08T16:22:30.371Z,7.43
2022-12-08T16:24:08.891Z,7.44
2022-12-08T16:26:23.973Z,7.56
2022-12-08T16:28:53.360Z,7.48
2022-12-08T16:30:45.186Z,7.44
2022-12-08T16:32:43.301Z,7.40
2022-12-08T16:34:41.279Z,7.36
2022-12-08T16:36:39.268Z,7.32
2022-12-08T16:38:37.560Z,7.32
2022-12-08T16:40:56.824Z,7.37
2022-12-08T16:42:53.726Z,7.36
2022-12-08T16:44:52.012Z,7.33
2022-12-08T16:46:51.602Z,7.37
2022-12-08T16:48:49.802Z,7.34
2022-12-08T16:50:47.838Z,7.29
2022-12-08T16:52:46.486Z,7.31
2022-12-08T16:54:44.516Z,7.27
2022-12-08T16:56:42.639Z,7.21
2022-12-08T16:58:40.640Z,7.18
2022-12-08T17:00:38.708Z,7.14
2022-12-08T17:02:38.229Z,7.10
2022-12-08T17:04:36.136Z,7.10
2022-12-08T17:06:34.541Z,7.05
2022-12-08T17:08:32.595Z,6.98
2022-12-08T17:10:31.835Z,6.95
2022-12-08T17:12:29.784Z,6.94
2022-12-08T17:14:27.771Z,6.92
2022-12-08T17:16:27.039Z,6.89
2022-12-08T17:18:26.435Z,6.87
2022-12-08T17:20:25.113Z,6.81
2022-12-08T17:22:23.192Z,6.85
2022-12-08T17:24:23.217Z,6.79
2022-12-08T17:26:21.239Z,6.87
2022-12-08T17:28:43.984Z,6.88
2022-12-08T17:30:37.312Z,6.89
2022-12-08T17:32:35.485Z,6.90
2022-12-08T17:34:34.893Z,6.89
2022-12-08T17:36:33.136Z,6.85
2022-12-08T17:38:31.262Z,6.97
2022-12-08T17:40:29.438Z,7.01
2022-12-08T17:42:27.590Z,6.89
2022-12-08T17:44:25.632Z,6.78
2022-12-08T17:46:26.776Z,6.74
2022-12-08T17:48:24.898Z,6.76
2022-12-08T17:50:24.224Z,6.78
2022-12-08T17:52:22.309Z,6.78
2022-12-08T17:54:20.601Z,6.76
2022-12-08T17:56:20.023Z,6.77
2022-12-08T17:58:18.090Z,6.73
2022-12-08T18:00:16.267Z,6.78
2022-12-08T18:02:15.198Z,6.74
2022-12-08T18:04:14.011Z,6.63
2022-12-08T18:06:13.925Z,6.53
2022-12-08T18:08:12.460Z,6.49
2022-12-08T18:10:10.612Z,6.46
2022-12-08T18:12:08.777Z,6.39
2022-12-08T18:14:10.159Z,6.38
2022-12-08T18:16:08.369Z,6.35
2022-12-08T18:18:06.482Z,6.32
2022-12-08T18:20:08.164Z,6.35
2022-12-08T18:22:07.766Z,6.34
2022-12-08T18:24:06.223Z,6.40
2022-12-08T18:26:05.032Z,6.42
2022-12-08T18:28:03.013Z,6.38
2022-12-08T18:30:02.143Z,6.35
2022-12-08T18:32:00.097Z,6.37
2022-12-08T18:33:58.218Z,6.37
2022-12-08T18:35:56.214Z,6.36
2022-12-08T18:37:55.562Z,6.40
2022-12-08T18:39:53.776Z,6.43
2022-12-08T18:41:51.918Z,6.43
2022-12-08T18:43:50.001Z,6.45
2022-12-08T18:45:48.058Z,6.49
2022-12-08T18:47:46.214Z,6.53
2022-12-08T18:49:44.303Z,6.57
2022-12-08T18:51:42.388Z,6.61
2022-12-08T18:53:41.858Z,6.57
2022-12-08T18:55:39.952Z,6.52
2022-12-08T18:57:39.479Z,6.56
2022-12-08T18:59:38.706Z,6.59
2022-12-08T19:01:37.599Z,6.68
2022-12-08T19:03:35.768Z,6.69
2022-12-08T19:05:33.788Z,6.69
2022-12-08T19:07:31.982Z,6.64
2022-12-08T19:09:31.371Z,6.62
2022-12-08T19:11:29.857Z,6.56
2022-12-08T19:13:28.213Z,6.64
2022-12-08T19:15:26.248Z,6.63
2022-12-08T19:17:25.851Z,6.60
2022-12-08T19:19:24.078Z,6.59
2022-12-08T19:21:23.981Z,6.59
2022-12-08T19:23:21.923Z,6.58
2022-12-08T19:25:22.014Z,6.48
2022-12-08T19:27:20.011Z,6.45
2022-12-08T19:29:18.078Z,6.46
2022-12-08T19:31:16.077Z,6.43
2022-12-08T19:33:14.263Z,6.40
2022-12-08T19:35:12.694Z,6.33
2022-12-08T19:37:12.620Z,6.31
2022-12-08T19:39:30.848Z,6.31
2022-12-08T19:41:47.489Z,6.40
2022-12-08T19:44:03.173Z,6.42
2022-12-08T19:46:01.671Z,6.40
2022-12-08T19:47:59.696Z,6.43
2022-12-08T19:50:17.878Z,6.37
2022-12-08T19:52:16.017Z,6.26
2022-12-08T19:54:14.171Z,6.22
2022-12-08T19:56:12.226Z,6.18
2022-12-08T19:58:11.950Z,6.09
2022-12-08T20:00:11.395Z,6.05
2022-12-08T20:02:09.745Z,6.02
2022-12-08T20:04:07.880Z,6.00
2022-12-08T20:06:06.113Z,5.96
2022-12-08T20:08:04.521Z,5.90
2022-12-08T20:10:04.688Z,5.87
2022-12-08T20:12:03.228Z,5.83
2022-12-08T20:14:02.717Z,5.78
2022-12-08T20:16:00.866Z,5.73
2022-12-08T20:17:58.871Z,5.69
2022-12-08T20:19:56.833Z,5.60
2022-12-08T20:21:54.771Z,5.57
2022-12-08T20:23:52.890Z,5.57
2022-12-08T20:25:51.076Z,5.60
2022-12-08T20:27:49.080Z,5.62
2022-12-08T20:29:48.607Z,5.57
2022-12-08T20:31:46.760Z,5.52
2022-12-08T20:33:44.864Z,5.44
2022-12-08T20:35:43.435Z,5.49
2022-12-08T20:37:41.625Z,5.59
2022-12-08T20:39:39.639Z,5.47
2022-12-08T20:41:39.356Z,5.37
2022-12-08T20:43:37.537Z,5.23
2022-12-08T20:45:37.399Z,5.18
2022-12-08T20:47:35.516Z,5.10
2022-12-08T20:49:34.943Z,5.01
2022-12-08T20:51:34.409Z,4.95
2022-12-08T20:53:32.532Z,4.94
2022-12-08T20:55:30.634Z,4.93
2022-12-08T20:57:42.109Z,4.93
2022-12-08T20:59:40.116Z,4.86
2022-12-08T21:01:39.771Z,4.78
2022-12-08T21:03:38.025Z,4.73
2022-12-08T21:05:38.842Z,4.76
2022-12-08T21:07:39.877Z,4.70
2022-12-08T21:09:38.189Z,4.71
2022-12-08T21:11:36.880Z,4.63
2022-12-08T21:13:35.440Z,4.56
2022-12-08T21:15:33.564Z,4.52
2022-12-08T21:17:33.279Z,4.45
2022-12-08T21:19:31.281Z,4.43
2022-12-08T21:21:29.426Z,4.45
2022-12-08T21:23:27.570Z,4.48
2022-12-08T21:25:26.076Z,4.51
2022-12-08T21:27:24.332Z,4.53
2022-12-08T21:29:22.529Z,4.54
2022-12-08T21:31:21.693Z,4.56
2022-12-08T21:33:21.276Z,4.60
2022-12-08T21:35:19.281Z,4.61
2022-12-08T21:37:17.757Z,4.61
2022-12-08T21:39:15.797Z,4.61
2022-12-08T21:41:15.187Z,4.56
2022-12-08T21:43:12.782Z,4.55
2022-12-08T21:45:12.276Z,4.54
2022-12-08T21:47:10.508Z,4.57
2022-12-08T21:49:09.942Z,4.60
2022-12-08T21:51:08.367Z,4.60
2022-12-08T21:53:06.550Z,4.57
2022-12-08T21:55:04.616Z,4.62
2022-12-08T21:57:03.017Z,4.64
2022-12-08T21:59:01.500Z,4.64
2022-12-08T22:01:05.700Z,4.63
2022-12-08T22:03:04.173Z,4.62
2022-12-08T22:05:05.463Z,4.64
2022-12-08T22:07:03.912Z,4.60
2022-12-08T22:09:02.219Z,4.64
2022-12-08T22:11:00.521Z,4.69
2022-12-08T22:12:58.581Z,4.70
2022-12-08T22:14:56.799Z,4.68
2022-12-08T22:16:54.970Z,4.64
2022-12-08T22:18:53.251Z,4.58
2022-12-08T22:20:52.689Z,4.57
2022-12-08T22:22:50.759Z,4.53
2022-12-08T22:24:48.777Z,4.51
2022-12-08T22:26:46.795Z,4.50
2022-12-08T22:28:45.291Z,4.50
2022-12-08T22:30:43.324Z,4.48
2022-12-08T22:32:42.085Z,4.46
2022-12-08T22:34:40.442Z,4.44
2022-12-08T22:36:39.873Z,4.46
2022-12-08T22:38:37.907Z,4.49
2022-12-08T22:40:36.068Z,4.48
2022-12-08T22:42:34.182Z,4.46
2022-12-08T22:44:32.278Z,4.46
2022-12-08T22:46:30.293Z,4.53
2022-12-08T22:48:28.391Z,4.57
2022-12-08T22:50:26.488Z,4.60
2022-12-08T22:52:26.060Z,4.64
2022-12-08T22:54:24.347Z,4.63
2022-12-08T22:56:22.307Z,4.62
2022-12-08T22:58:20.471Z,4.66
2022-12-08T23:00:19.472Z,4.60
2022-12-08T23:02:17.937Z,4.54
2022-12-08T23:04:18.388Z,4.49
2022-12-08T23:06:16.622Z,4.54
2022-12-08T23:08:18.034Z,4.69
2022-12-08T23:10:16.531Z,4.68
2022-12-08T23:12:14.566Z,4.57
2022-12-08T23:14:12.594Z,4.52
2022-12-08T23:16:11.322Z,4.49
2022-12-08T23:18:09.771Z,4.49
2022-12-08T23:20:08.790Z,4.52
2022-12-08T23:22:07.489Z,4.41
2022-12-08T23:24:07.418Z,4.34
2022-12-08T23:26:18.033Z,4.25
2022-12-08T23:28:16.210Z,4.19
2022-12-08T23:30:14.631Z,4.15
2022-12-08T23:32:12.617Z,4.09
2022-12-08T23:34:11.214Z,4.10
2022-12-08T23:36:10.081Z,4.25
2022-12-08T23:38:08.215Z,4.18
2022-12-08T23:40:08.896Z,4.19
2022-12-08T23:42:07.133Z,4.23
2022-12-08T23:44:05.103Z,4.23
2022-12-08T23:46:03.245Z,4.31
2022-12-08T23:48:01.837Z,4.25
2022-12-08T23:49:59.980Z,4.19
2022-12-08T23:51:57.886Z,4.13
2022-12-08T23:53:55.973Z,4.06
2022-12-08T23:56:01.303Z,4.08
2022-12-08T23:57:59.964Z,4.08
2022-12-08T23:59:57.938Z,4.09
